sensor_id;sensor_type;location;lat;lon;timestamp;pressure;altitude;pressure_sealevel;temperature;humidity
69848;BME280;57143;55.940;37.496;2024-02-04T00:01:22;96373.84;;;-0.97;100.00
69848;BME280;57143;55.940;37.496;2024-02-04T00:04:09;96374.69;;;-0.85;100.00
69848;BME280;57143;55.940;37.496;2024-02-04T00:06:37;96368.53;;;-0.86;100.00
69848;BME280;57143;55.940;37.496;2024-02-04T00:09:04;96325.97;;;-1.09;100.00
69848;BME280;57143;55.940;37.496;2024-02-04T00:11:32;96356.66;;;-0.83;100.00
69848;BME280;57143;55.940;37.496;2024-02-04T00:14:00;96353.06;;;-0.89;100.00
69848;BME280;57143;55.940;37.496;2024-02-04T00:16:28;96337.09;;;-0.89;100.00
69848;BME280;57143;55.940;37.496;2024-02-04T00:18:56;96339.78;;;-0.77;100.00
69848;BME280;57143;55.940;37.496;2024-02-04T00:21:25;96338.88;;;-0.83;100.00
69848;BME280;57143;55.940;37.496;2024-02-04T00:24:10;96338.03;;;-0.83;100.00
69848;BME280;57143;55.940;37.496;2024-02-04T00:26:38;96321.38;;;-0.90;100.00
69848;BME280;57143;55.940;37.496;2024-02-04T00:29:04;96316.19;;;-0.85;100.00
69848;BME280;57143;55.940;37.496;2024-02-04T00:37:04;96284.66;;;-0.93;100.00
69848;BME280;57143;55.940;37.496;2024-02-04T00:39:32;96307.09;;;-0.78;100.00
69848;BME280;57143;55.940;37.496;2024-02-04T00:41:59;96308.69;;;-0.77;100.00
69848;BME280;57143;55.940;37.496;2024-02-04T00:44:26;96296.56;;;-0.73;100.00
69848;BME280;57143;55.940;37.496;2024-02-04T00:46:53;96296.56;;;-0.73;100.00
69848;BME280;57143;55.940;37.496;2024-02-04T00:49:21;96288.38;;;-0.71;100.00
69848;BME280;57143;55.940;37.496;2024-02-04T00:51:48;96261.31;;;-0.80;100.00
69848;BME280;57143;55.940;37.496;2024-02-04T00:54:17;96291.13;;;-0.66;100.00
69848;BME280;57143;55.940;37.496;2024-02-04T00:56:44;96277.84;;;-0.66;100.00
69848;BME280;57143;55.940;37.496;2024-02-04T00:59:12;96276.13;;;-0.61;100.00
69848;BME280;57143;55.940;37.496;2024-02-04T01:01:39;96283.50;;;-0.51;100.00
69848;BME280;57143;55.940;37.496;2024-02-04T01:04:06;96266.16;;;-0.65;100.00
69848;BME280;57143;55.940;37.496;2024-02-04T01:06:33;96261.19;;;-0.62;100.00
69848;BME280;57143;55.940;37.496;2024-02-04T01:09:01;96274.03;;;-0.47;100.00
69848;BME280;57143;55.940;37.496;2024-02-04T01:11:30;96262.09;;;-0.45;100.00
69848;BME280;57143;55.940;37.496;2024-02-04T01:13:57;96245.34;;;-0.57;100.00
69848;BME280;57143;55.940;37.496;2024-02-04T01:16:25;96226.38;;;-0.60;100.00
69848;BME280;57143;55.940;37.496;2024-02-04T01:18:52;96232.72;;;-0.50;100.00
69848;BME280;57143;55.940;37.496;2024-02-04T01:21:19;96223.72;;;-0.49;100.00
69848;BME280;57143;55.940;37.496;2024-02-04T01:23:47;96226.72;;;-0.45;100.00
69848;BME280;57143;55.940;37.496;2024-02-04T01:26:14;96228.00;;;-0.48;100.00
69848;BME280;57143;55.940;37.496;2024-02-04T01:28:43;96245.91;;;-0.32;100.00
69848;BME280;57143;55.940;37.496;2024-02-04T01:31:10;96226.16;;;-0.47;100.00
69848;BME280;57143;55.940;37.496;2024-02-04T01:33:38;96234.78;;;-0.29;100.00
69848;BME280;57143;55.940;37.496;2024-02-04T01:36:05;96241.63;;;-0.33;100.00
69848;BME280;57143;55.940;37.496;2024-02-04T01:38:32;96230.09;;;-0.38;100.00
69848;BME280;57143;55.940;37.496;2024-02-04T01:41:00;96238.28;;;-0.28;100.00
69848;BME280;57143;55.940;37.496;2024-02-04T01:43:27;96237.66;;;-0.19;100.00
69848;BME280;57143;55.940;37.496;2024-02-04T01:45:57;96196.06;;;-0.36;100.00
69848;BME280;57143;55.940;37.496;2024-02-04T01:48:25;96228.06;;;-0.20;100.00
69848;BME280;57143;55.940;37.496;2024-02-04T01:50:53;96214.91;;;-0.26;100.00
69848;BME280;57143;55.940;37.496;2024-02-04T01:53:40;96219.84;;;-0.18;100.00
69848;BME280;57143;55.940;37.496;2024-02-04T01:56:10;96211.78;;;-0.23;100.00
69848;BME280;57143;55.940;37.496;2024-02-04T01:58:56;96216.38;;;-0.19;100.00
69848;BME280;57143;55.940;37.496;2024-02-04T02:01:27;96213.81;;;-0.14;100.00
69848;BME280;57143;55.940;37.496;2024-02-04T02:03:55;96201.22;;;-0.18;100.00
69848;BME280;57143;55.940;37.496;2024-02-04T02:06:22;96207.94;;;-0.16;100.00
69848;BME280;57143;55.940;37.496;2024-02-04T02:08:51;96176.50;;;-0.30;100.00
69848;BME280;57143;55.940;37.496;2024-02-04T02:11:21;96191.16;;;-0.16;100.00
69848;BME280;57143;55.940;37.496;2024-02-04T02:13:57;96190.91;;;-0.15;100.00
69848;BME280;57143;55.940;37.496;2024-02-04T02:16:31;96192.53;;;-0.14;100.00
69848;BME280;57143;55.940;37.496;2024-02-04T02:19:05;96177.72;;;-0.10;100.00
69848;BME280;57143;55.940;37.496;2024-02-04T02:21:44;96184.09;;;-0.11;100.00
69848;BME280;57143;55.940;37.496;2024-02-04T02:24:27;96180.31;;;0.02;100.00
69848;BME280;57143;55.940;37.496;2024-02-04T02:26:55;96181.75;;;-0.07;100.00
69848;BME280;57143;55.940;37.496;2024-02-04T02:29:24;96179.66;;;-0.05;100.00
69848;BME280;57143;55.940;37.496;2024-02-04T02:31:51;96179.66;;;-0.05;100.00
69848;BME280;57143;55.940;37.496;2024-02-04T02:34:19;96174.44;;;0.00;100.00
69848;BME280;57143;55.940;37.496;2024-02-04T02:36:52;96183.91;;;0.08;100.00
69848;BME280;57143;55.940;37.496;2024-02-04T02:39:24;96133.88;;;-0.19;100.00
69848;BME280;57143;55.940;37.496;2024-02-04T02:41:56;96163.25;;;0.15;100.00
69848;BME280;57143;55.940;37.496;2024-02-04T02:44:25;96161.50;;;0.20;100.00
69848;BME280;57143;55.940;37.496;2024-02-04T02:46:54;96153.75;;;0.19;100.00
69848;BME280;57143;55.940;37.496;2024-02-04T02:49:23;96152.78;;;0.25;100.00
69848;BME280;57143;55.940;37.496;2024-02-04T02:51:50;96156.34;;;0.30;100.00
69848;BME280;57143;55.940;37.496;2024-02-04T02:54:18;96146.03;;;0.34;100.00
69848;BME280;57143;55.940;37.496;2024-02-04T02:56:46;96099.28;;;0.10;100.00
69848;BME280;57143;55.940;37.496;2024-02-04T02:59:14;96129.81;;;0.35;100.00
69848;BME280;57143;55.940;37.496;2024-02-04T03:01:42;96128.28;;;0.39;100.00
69848;BME280;57143;55.940;37.496;2024-02-04T03:04:09;96128.78;;;0.36;100.00
69848;BME280;57143;55.940;37.496;2024-02-04T03:06:36;96099.53;;;0.25;100.00
69848;BME280;57143;55.940;37.496;2024-02-04T03:09:22;96127.56;;;0.44;100.00
69848;BME280;57143;55.940;37.496;2024-02-04T03:11:49;96131.69;;;0.51;100.00
69848;BME280;57143;55.940;37.496;2024-02-04T03:14:20;96115.88;;;0.45;100.00
69848;BME280;57143;55.940;37.496;2024-02-04T03:16:47;96124.97;;;0.49;100.00
69848;BME280;57143;55.940;37.496;2024-02-04T03:19:14;96125.94;;;0.59;100.00
69848;BME280;57143;55.940;37.496;2024-02-04T03:21:58;96121.44;;;0.60;100.00
69848;BME280;57143;55.940;37.496;2024-02-04T03:24:26;96115.63;;;0.63;100.00
69848;BME280;57143;55.940;37.496;2024-02-04T03:26:53;96109.06;;;0.54;100.00
69848;BME280;57143;55.940;37.496;2024-02-04T03:29:22;96110.28;;;0.63;100.00
69848;BME280;57143;55.940;37.496;2024-02-04T03:31:49;96115.94;;;0.66;100.00
69848;BME280;57143;55.940;37.496;2024-02-04T03:34:17;96113.59;;;0.70;100.00
69848;BME280;57143;55.940;37.496;2024-02-04T03:36:44;96122.56;;;0.64;100.00
69848;BME280;57143;55.940;37.496;2024-02-04T03:41:57;96093.41;;;0.57;100.00
69848;BME280;57143;55.940;37.496;2024-02-04T03:44:26;96074.50;;;0.59;100.00
69848;BME280;57143;55.940;37.496;2024-02-04T03:46:53;96090.94;;;0.67;100.00
69848;BME280;57143;55.940;37.496;2024-02-04T03:49:21;96071.44;;;0.50;100.00
69848;BME280;57143;55.940;37.496;2024-02-04T03:51:48;96089.28;;;0.66;100.00
69848;BME280;57143;55.940;37.496;2024-02-04T03:54:15;96085.03;;;0.65;100.00
69848;BME280;57143;55.940;37.496;2024-02-04T03:56:44;96072.34;;;0.56;100.00
69848;BME280;57143;55.940;37.496;2024-02-04T03:59:12;96090.03;;;0.62;100.00
69848;BME280;57143;55.940;37.496;2024-02-04T04:01:40;96092.84;;;0.72;100.00
69848;BME280;57143;55.940;37.496;2024-02-04T04:04:13;96079.63;;;0.60;100.00
69848;BME280;57143;55.940;37.496;2024-02-04T04:06:42;96069.38;;;0.69;100.00
69848;BME280;57143;55.940;37.496;2024-02-04T04:09:09;96098.50;;;0.75;100.00
69848;BME280;57143;55.940;37.496;2024-02-04T04:11:36;96070.66;;;0.66;100.00
69848;BME280;57143;55.940;37.496;2024-02-04T04:14:03;96097.75;;;0.80;100.00
69848;BME280;57143;55.940;37.496;2024-02-04T04:16:31;96096.31;;;0.89;100.00
69848;BME280;57143;55.940;37.496;2024-02-04T04:18:59;96092.81;;;0.88;100.00
69848;BME280;57143;55.940;37.496;2024-02-04T04:21:27;96090.22;;;0.93;100.00
69848;BME280;57143;55.940;37.496;2024-02-04T04:23:54;96091.28;;;0.92;100.00
69848;BME280;57143;55.940;37.496;2024-02-04T04:26:21;96068.44;;;0.80;100.00
69848;BME280;57143;55.940;37.496;2024-02-04T04:29:06;96075.53;;;0.91;100.00
69848;BME280;57143;55.940;37.496;2024-02-04T04:31:33;96079.41;;;1.00;100.00
69848;BME280;57143;55.940;37.496;2024-02-04T04:34:02;96080.94;;;0.96;100.00
69848;BME280;57143;55.940;37.496;2024-02-04T04:36:29;96075.59;;;0.96;100.00
69848;BME280;57143;55.940;37.496;2024-02-04T04:38:56;96065.97;;;0.95;100.00
69848;BME280;57143;55.940;37.496;2024-02-04T04:41:24;96078.09;;;1.02;100.00
69848;BME280;57143;55.940;37.496;2024-02-04T04:43:51;96072.44;;;0.99;100.00
69848;BME280;57143;55.940;37.496;2024-02-04T04:46:19;96077.06;;;1.03;100.00
69848;BME280;57143;55.940;37.496;2024-02-04T04:48:47;96078.03;;;0.97;100.00
69848;BME280;57143;55.940;37.496;2024-02-04T04:51:15;96078.09;;;1.02;100.00
69848;BME280;57143;55.940;37.496;2024-02-04T04:53:43;96052.38;;;0.91;100.00
69848;BME280;57143;55.940;37.496;2024-02-04T04:56:10;96076.00;;;1.04;100.00
69848;BME280;57143;55.940;37.496;2024-02-04T04:58:37;96074.72;;;1.07;100.00
69848;BME280;57143;55.940;37.496;2024-02-04T05:01:04;96077.06;;;1.03;100.00
69848;BME280;57143;55.940;37.496;2024-02-04T05:03:32;96083.00;;;1.10;100.00
69848;BME280;57143;55.940;37.496;2024-02-04T05:05:59;96072.81;;;1.07;100.00
69848;BME280;57143;55.940;37.496;2024-02-04T05:08:45;96082.84;;;1.17;100.00
69848;BME280;57143;55.940;37.496;2024-02-04T05:11:13;96065.38;;;1.09;100.00
69848;BME280;57143;55.940;37.496;2024-02-04T05:13:40;96079.91;;;1.18;100.00
69848;BME280;57143;55.940;37.496;2024-02-04T05:16:07;96073.22;;;1.16;100.00
69848;BME280;57143;55.940;37.496;2024-02-04T05:18:34;96082.19;;;1.10;100.00
69848;BME280;57143;55.940;37.496;2024-02-04T05:21:02;96079.59;;;1.15;100.00
69848;BME280;57143;55.940;37.496;2024-02-04T05:23:29;96078.78;;;1.14;100.00
69848;BME280;57143;55.940;37.496;2024-02-04T05:26:02;96053.53;;;1.00;100.00
69848;BME280;57143;55.940;37.496;2024-02-04T05:28:30;96069.25;;;1.18;100.00
69848;BME280;57143;55.940;37.496;2024-02-04T05:30:57;96080.22;;;1.22;100.00
69848;BME280;57143;55.940;37.496;2024-02-04T05:33:25;96077.56;;;1.22;100.00
69848;BME280;57143;55.940;37.496;2024-02-04T05:35:52;96077.31;;;1.24;100.00
69848;BME280;57143;55.940;37.496;2024-02-04T05:38:20;96078.34;;;1.23;100.00
69848;BME280;57143;55.940;37.496;2024-02-04T05:40:48;96071.66;;;1.20;100.00
69848;BME280;57143;55.940;37.496;2024-02-04T05:43:16;96069.56;;;1.22;100.00
69848;BME280;57143;55.940;37.496;2024-02-04T05:46:02;96079.91;;;1.18;100.00
69848;BME280;57143;55.940;37.496;2024-02-04T05:48:46;96073.09;;;1.28;100.00
69848;BME280;57143;55.940;37.496;2024-02-04T05:51:31;96084.88;;;1.32;100.00
69848;BME280;57143;55.940;37.496;2024-02-04T05:53:59;96090.22;;;1.32;100.00
69848;BME280;57143;55.940;37.496;2024-02-04T05:56:26;96077.19;;;1.35;100.00
69848;BME280;57143;55.940;37.496;2024-02-04T05:58:55;96071.47;;;1.27;100.00
69848;BME280;57143;55.940;37.496;2024-02-04T06:01:22;96081.53;;;1.41;100.00
69848;BME280;57143;55.940;37.496;2024-02-04T06:03:50;96067.03;;;1.32;100.00
69848;BME280;57143;55.940;37.496;2024-02-04T06:06:18;96066.97;;;1.27;100.00
69848;BME280;57143;55.940;37.496;2024-02-04T06:08:46;96089.59;;;1.46;100.00
69848;BME280;57143;55.940;37.496;2024-02-04T06:11:14;96099.28;;;1.52;100.00
69848;BME280;57143;55.940;37.496;2024-02-04T06:13:43;96104.22;;;1.44;100.00
69848;BME280;57143;55.940;37.496;2024-02-04T06:16:12;96104.28;;;1.49;100.00
69848;BME280;57143;55.940;37.496;2024-02-04T06:18:58;96109.63;;;1.49;100.00
69848;BME280;57143;55.940;37.496;2024-02-04T06:21:25;96109.69;;;1.54;100.00
69848;BME280;57143;55.940;37.496;2024-02-04T06:23:53;96105.94;;;1.50;100.00
69848;BME280;57143;55.940;37.496;2024-02-04T06:26:20;96119.31;;;1.55;100.00
69848;BME280;57143;55.940;37.496;2024-02-04T06:28:47;96089.28;;;1.43;100.00
69848;BME280;57143;55.940;37.496;2024-02-04T06:31:18;96120.75;;;1.62;100.00
69848;BME280;57143;55.940;37.496;2024-02-04T06:33:45;96110.19;;;1.51;100.00
69848;BME280;57143;55.940;37.496;2024-02-04T06:36:12;96128.88;;;1.51;100.00
69848;BME280;57143;55.940;37.496;2024-02-04T06:38:40;96131.59;;;1.56;100.00
69848;BME280;57143;55.940;37.496;2024-02-04T06:41:07;96129.31;;;1.43;100.00
69848;BME280;57143;55.940;37.496;2024-02-04T06:43:37;96126.41;;;1.44;100.00
69848;BME280;57143;55.940;37.496;2024-02-04T06:46:04;96131.28;;;1.52;100.00
69848;BME280;57143;55.940;37.496;2024-02-04T06:48:33;96141.94;;;1.69;100.00
69848;BME280;57143;55.940;37.496;2024-02-04T06:51:01;96139.44;;;1.62;100.00
69848;BME280;57143;55.940;37.496;2024-02-04T06:53:28;96132.78;;;1.65;100.00
69848;BME280;57143;55.940;37.496;2024-02-04T06:55:55;96113.63;;;1.46;100.00
69848;BME280;57143;55.940;37.496;2024-02-04T06:58:23;96160.97;;;1.77;100.00
69848;BME280;57143;55.940;37.496;2024-02-04T07:00:50;96164.84;;;1.86;100.00
69848;BME280;57143;55.940;37.496;2024-02-04T07:03:18;96170.53;;;1.95;100.00
69848;BME280;57143;55.940;37.496;2024-02-04T07:05:47;96160.28;;;1.87;100.00
69848;BME280;57143;55.940;37.496;2024-02-04T07:08:14;96181.44;;;1.93;100.00
69848;BME280;57143;55.940;37.496;2024-02-04T07:10:42;96180.84;;;1.86;100.00
69848;BME280;57143;55.940;37.496;2024-02-04T07:13:09;96179.47;;;1.84;100.00
69848;BME280;57143;55.940;37.496;2024-02-04T07:15:37;96187.16;;;1.80;100.00
69848;BME280;57143;55.940;37.496;2024-02-04T07:18:04;96155.63;;;1.56;100.00
69848;BME280;57143;55.940;37.496;2024-02-04T07:20:32;96186.78;;;1.72;100.00
69848;BME280;57143;55.940;37.496;2024-02-04T07:23:01;96169.91;;;1.66;100.00
69848;BME280;57143;55.940;37.496;2024-02-04T07:25:29;96192.31;;;1.87;100.00
69848;BME280;57143;55.940;37.496;2024-02-04T07:27:57;96200.00;;;1.83;100.00
69848;BME280;57143;55.940;37.496;2024-02-04T07:30:25;96206.97;;;1.84;100.00
69848;BME280;57143;55.940;37.496;2024-02-04T07:32:52;96204.19;;;1.96;100.00
69848;BME280;57143;55.940;37.496;2024-02-04T07:35:19;96210.97;;;2.03;100.00
69848;BME280;57143;55.940;37.496;2024-02-04T07:37:47;96224.56;;;2.02;100.00
69848;BME280;57143;55.940;37.496;2024-02-04T07:40:16;96221.44;;;1.88;100.00
69848;BME280;57143;55.940;37.496;2024-02-04T07:42:45;96226.53;;;1.90;100.00
69848;BME280;57143;55.940;37.496;2024-02-04T07:45:12;96223.56;;;1.86;100.00
69848;BME280;57143;55.940;37.496;2024-02-04T07:47:39;96230.81;;;1.91;100.00
69848;BME280;57143;55.940;37.496;2024-02-04T07:50:08;96231.94;;;1.95;100.00
69848;BME280;57143;55.940;37.496;2024-02-04T07:52:35;96222.94;;;1.79;100.00
69848;BME280;57143;55.940;37.496;2024-02-04T07:55:03;96230.44;;;1.82;100.00
69848;BME280;57143;55.940;37.496;2024-02-04T07:57:32;96253.53;;;1.93;100.00
69848;BME280;57143;55.940;37.496;2024-02-04T08:00:02;96245.22;;;1.90;100.00
69848;BME280;57143;55.940;37.496;2024-02-04T08:02:32;96252.44;;;1.89;100.00
69848;BME280;57143;55.940;37.496;2024-02-04T08:04:59;96248.50;;;1.75;100.00
69848;BME280;57143;55.940;37.496;2024-02-04T08:07:27;96257.66;;;2.01;100.00
69848;BME280;57143;55.940;37.496;2024-02-04T08:09:54;96236.28;;;1.79;100.00
69848;BME280;57143;55.940;37.496;2024-02-04T08:12:22;96267.44;;;1.95;100.00
69848;BME280;57143;55.940;37.496;2024-02-04T08:14:51;96241.06;;;1.77;100.00
69848;BME280;57143;55.940;37.496;2024-02-04T08:17:18;96271.91;;;1.90;100.00
69848;BME280;57143;55.940;37.496;2024-02-04T08:19:46;96285.34;;;1.95;100.00
69848;BME280;57143;55.940;37.496;2024-02-04T08:22:13;96279.84;;;2.01;100.00
69848;BME280;57143;55.940;37.496;2024-02-04T08:24:41;96284.59;;;1.99;100.00
69848;BME280;57143;55.940;37.496;2024-02-04T08:27:08;96285.44;;;2.00;100.00
69848;BME280;57143;55.940;37.496;2024-02-04T08:29:36;96275.16;;;1.92;100.00
69848;BME280;57143;55.940;37.496;2024-02-04T08:32:05;96301.78;;;1.87;100.00
69848;BME280;57143;55.940;37.496;2024-02-04T08:34:33;96312.13;;;2.00;100.00
69848;BME280;57143;55.940;37.496;2024-02-04T08:37:01;96287.66;;;1.86;100.00
69848;BME280;57143;55.940;37.496;2024-02-04T08:39:29;96320.94;;;2.00;100.00
69848;BME280;57143;55.940;37.496;2024-02-04T08:41:56;96301.97;;;1.80;100.00
69848;BME280;57143;55.940;37.496;2024-02-04T08:44:24;96304.28;;;1.93;100.00
69848;BME280;57143;55.940;37.496;2024-02-04T08:46:51;96309.84;;;1.92;100.00
69848;BME280;57143;55.940;37.496;2024-02-04T08:49:20;96310.81;;;2.02;100.00
69848;BME280;57143;55.940;37.496;2024-02-04T08:51:48;96322.56;;;2.01;100.00
69848;BME280;57143;55.940;37.496;2024-02-04T08:54:15;96318.81;;;2.02;100.00
69848;BME280;57143;55.940;37.496;2024-02-04T08:56:43;96331.38;;;2.02;100.00
69848;BME280;57143;55.940;37.496;2024-02-04T08:59:11;96320.22;;;1.88;100.00
69848;BME280;57143;55.940;37.496;2024-02-04T09:01:38;96340.47;;;1.84;100.00
69848;BME280;57143;55.940;37.496;2024-02-04T09:04:05;96323.25;;;1.75;100.00
69848;BME280;57143;55.940;37.496;2024-02-04T09:09:09;96344.50;;;1.87;100.00
69848;BME280;57143;55.940;37.496;2024-02-04T09:11:36;96349.91;;;2.08;100.00
69848;BME280;57143;55.940;37.496;2024-02-04T09:14:04;96342.22;;;2.12;100.00
69848;BME280;57143;55.940;37.496;2024-02-04T09:16:51;96355.84;;;2.32;100.00
69848;BME280;57143;55.940;37.496;2024-02-04T09:19:20;96308.06;;;1.97;100.00
69848;BME280;57143;55.940;37.496;2024-02-04T09:21:48;96338.34;;;2.24;100.00
69848;BME280;57143;55.940;37.496;2024-02-04T09:24:16;96367.97;;;2.40;100.00
69848;BME280;57143;55.940;37.496;2024-02-04T09:26:44;96364.53;;;2.44;100.00
69848;BME280;57143;55.940;37.496;2024-02-04T09:29:31;96375.91;;;2.34;100.00
69848;BME280;57143;55.940;37.496;2024-02-04T09:31:59;96379.50;;;2.45;100.00
69848;BME280;57143;55.940;37.496;2024-02-04T09:34:27;96378.41;;;2.41;100.00
69848;BME280;57143;55.940;37.496;2024-02-04T09:36:54;96383.63;;;2.31;100.00
69848;BME280;57143;55.940;37.496;2024-02-04T09:39:25;96381.97;;;2.30;100.00
69848;BME280;57143;55.940;37.496;2024-02-04T09:42:02;96382.84;;;2.14;100.00
69848;BME280;57143;55.940;37.496;2024-02-04T09:44:30;96380.66;;;1.94;100.00
69848;BME280;57143;55.940;37.496;2024-02-04T09:46:58;96383.25;;;2.06;100.00
69848;BME280;57143;55.940;37.496;2024-02-04T09:49:27;96363.50;;;1.90;100.00
69848;BME280;57143;55.940;37.496;2024-02-04T09:51:56;96385.19;;;2.10;100.00
69848;BME280;57143;55.940;37.496;2024-02-04T09:54:28;96383.38;;;2.16;100.00
69848;BME280;57143;55.940;37.496;2024-02-04T09:56:58;96382.84;;;1.97;100.00
69848;BME280;57143;55.940;37.496;2024-02-04T09:59:25;96393.19;;;1.94;100.00
69848;BME280;57143;55.940;37.496;2024-02-04T10:01:53;96362.38;;;2.03;100.00
69848;BME280;57143;55.940;37.496;2024-02-04T10:04:22;96390.22;;;2.07;100.00
69848;BME280;57143;55.940;37.496;2024-02-04T10:06:49;96399.31;;;2.27;100.00
69848;BME280;57143;55.940;37.496;2024-02-04T10:09:17;96416.09;;;2.06;100.00
69848;BME280;57143;55.940;37.496;2024-02-04T10:11:45;96408.34;;;2.05;100.00
69848;BME280;57143;55.940;37.496;2024-02-04T10:14:13;96426.38;;;1.98;100.00
69848;BME280;57143;55.940;37.496;2024-02-04T10:16:40;96418.06;;;1.94;100.00
69848;BME280;57143;55.940;37.496;2024-02-04T10:19:07;96422.34;;;2.12;100.00
69848;BME280;57143;55.940;37.496;2024-02-04T10:21:35;96415.47;;;1.99;100.00
69848;BME280;57143;55.940;37.496;2024-02-04T10:24:02;96431.06;;;2.07;100.00
69848;BME280;57143;55.940;37.496;2024-02-04T10:26:30;96437.06;;;2.14;100.00
69848;BME280;57143;55.940;37.496;2024-02-04T10:29:01;96440.16;;;2.06;100.00
69848;BME280;57143;55.940;37.496;2024-02-04T10:31:28;96440.22;;;2.11;100.00
69848;BME280;57143;55.940;37.496;2024-02-04T10:33:56;96426.78;;;1.90;100.00
69848;BME280;57143;55.940;37.496;2024-02-04T10:36:23;96447.34;;;1.89;100.00
69848;BME280;57143;55.940;37.496;2024-02-04T10:38:50;96398.06;;;1.80;100.00
69848;BME280;57143;55.940;37.496;2024-02-04T10:41:18;96442.66;;;2.13;100.00
69848;BME280;57143;55.940;37.496;2024-02-04T10:43:45;96450.41;;;2.14;100.00
69848;BME280;57143;55.940;37.496;2024-02-04T10:46:18;96411.72;;;2.00;100.00
69848;BME280;57143;55.940;37.496;2024-02-04T10:48:51;96447.03;;;2.19;100.00
69848;BME280;57143;55.940;37.496;2024-02-04T10:51:24;96454.63;;;2.27;100.00
69848;BME280;57143;55.940;37.496;2024-02-04T10:53:54;96422.72;;;2.04;100.00
69848;BME280;57143;55.940;37.496;2024-02-04T10:56:29;96455.09;;;2.07;100.00
69848;BME280;57143;55.940;37.496;2024-02-04T10:58:58;96465.72;;;2.19;100.00
69848;BME280;57143;55.940;37.496;2024-02-04T11:01:29;96476.16;;;2.20;100.00
69848;BME280;57143;55.940;37.496;2024-02-04T11:03:57;96474.53;;;2.19;100.00
69848;BME280;57143;55.940;37.496;2024-02-04T11:06:27;96453.56;;;2.11;100.00
69848;BME280;57143;55.940;37.496;2024-02-04T11:08:55;96473.53;;;2.42;100.00
69848;BME280;57143;55.940;37.496;2024-02-04T11:11:24;96476.63;;;2.34;100.00
69848;BME280;57143;55.940;37.496;2024-02-04T11:13:56;96467.88;;;2.38;100.00
69848;BME280;57143;55.940;37.496;2024-02-04T11:16:40;96462.22;;;2.18;100.00
69848;BME280;57143;55.940;37.496;2024-02-04T11:19:23;96440.50;;;2.31;100.00
69848;BME280;57143;55.940;37.496;2024-02-04T11:22:25;96467.22;;;2.31;100.00
69848;BME280;57143;55.940;37.496;2024-02-04T11:25:19;96464.38;;;2.55;100.00
69848;BME280;57143;55.940;37.496;2024-02-04T11:27:53;96474.72;;;2.29;100.00
69848;BME280;57143;55.940;37.496;2024-02-04T11:30:20;96456.88;;;2.18;100.00
69848;BME280;57143;55.940;37.496;2024-02-04T11:58:22;96540.38;;;2.97;100.00
69848;BME280;57143;55.940;37.496;2024-02-04T12:00:52;96525.63;;;2.94;100.00
69848;BME280;57143;55.940;37.496;2024-02-04T12:03:29;96513.41;;;2.82;100.00
69848;BME280;57143;55.940;37.496;2024-02-04T12:05:57;96520.22;;;2.89;100.00
69848;BME280;57143;55.940;37.496;2024-02-04T12:08:26;96542.75;;;2.93;100.00
69848;BME280;57143;55.940;37.496;2024-02-04T12:10:54;96526.47;;;2.78;100.00
69848;BME280;57143;55.940;37.496;2024-02-04T12:13:24;96527.47;;;2.56;100.00
69848;BME280;57143;55.940;37.496;2024-02-04T12:15:53;96520.59;;;2.43;100.00
69848;BME280;57143;55.940;37.496;2024-02-04T12:18:21;96532.66;;;2.62;100.00
69848;BME280;57143;55.940;37.496;2024-02-04T12:20:48;96520.50;;;2.55;100.00
69848;BME280;57143;55.940;37.496;2024-02-04T12:23:17;96525.53;;;2.51;100.00
69848;BME280;57143;55.940;37.496;2024-02-04T12:25:45;96532.81;;;2.56;100.00
69848;BME280;57143;55.940;37.496;2024-02-04T12:28:13;96530.47;;;2.43;100.00
69848;BME280;57143;55.940;37.496;2024-02-04T12:30:52;96532.59;;;2.57;100.00
69848;BME280;57143;55.940;37.496;2024-02-04T12:33:23;96521.25;;;2.50;100.00
69848;BME280;57143;55.940;37.496;2024-02-04T12:35:51;96533.22;;;2.48;100.00
69848;BME280;57143;55.940;37.496;2024-02-04T12:38:21;96536.28;;;2.73;100.00
69848;BME280;57143;55.940;37.496;2024-02-04T12:40:49;96537.16;;;2.78;100.00
69848;BME280;57143;55.940;37.496;2024-02-04T12:43:16;96529.66;;;2.59;100.00
69848;BME280;57143;55.940;37.496;2024-02-04T12:45:48;96539.94;;;2.33;100.00
69848;BME280;57143;55.940;37.496;2024-02-04T12:48:21;96537.53;;;2.15;100.00
69848;BME280;57143;55.940;37.496;2024-02-04T12:50:51;96543.66;;;2.16;100.00
69848;BME280;57143;55.940;37.496;2024-02-04T12:53:19;96539.25;;;1.93;100.00
69848;BME280;57143;55.940;37.496;2024-02-04T12:55:46;96534.66;;;1.89;100.00
69848;BME280;57143;55.940;37.496;2024-02-04T12:58:14;96528.31;;;1.78;100.00
69848;BME280;57143;55.940;37.496;2024-02-04T13:00:45;96527.59;;;1.83;100.00
69848;BME280;57143;55.940;37.496;2024-02-04T13:03:15;96521.28;;;1.72;100.00
69848;BME280;57143;55.940;37.496;2024-02-04T13:05:43;96513.59;;;1.76;100.00
69848;BME280;57143;55.940;37.496;2024-02-04T13:08:11;96523.53;;;1.80;100.00
69848;BME280;57143;55.940;37.496;2024-02-04T13:10:39;96516.25;;;1.76;100.00
69848;BME280;57143;55.940;37.496;2024-02-04T13:13:09;96522.72;;;1.80;100.00
69848;BME280;57143;55.940;37.496;2024-02-04T13:15:40;96517.94;;;1.65;100.00
69848;BME280;57143;55.940;37.496;2024-02-04T13:18:10;96515.03;;;1.67;100.00
69848;BME280;57143;55.940;37.496;2024-02-04T13:20:38;96518.13;;;1.75;100.00
69848;BME280;57143;55.940;37.496;2024-02-04T13:23:06;96513.31;;;1.61;100.00
69848;BME280;57143;55.940;37.496;2024-02-04T13:25:33;96522.47;;;1.65;100.00
69848;BME280;57143;55.940;37.496;2024-02-04T13:28:01;96522.31;;;1.71;100.00
69848;BME280;57143;55.940;37.496;2024-02-04T13:30:29;96519.06;;;1.69;100.00
69848;BME280;57143;55.940;37.496;2024-02-04T13:32:56;96528.13;;;1.68;100.00
69848;BME280;57143;55.940;37.496;2024-02-04T13:35:25;96508.28;;;1.64;100.00